Time;durP1;ratioP1;P1;durP2;ratioP2;P2;SDS_P1;SDS_P2;PMS_P1;PMS_P2;Temp;Humidity;BMP_temperature;BMP_pressure;BME280_temperature;BME280_humidity;BME280_pressure;Samples;Min_cycle;Max_cycle;Signal;HPM_P1;HPM_P2
2023/05/07 00:05:45;;;;;;;3.53;1.97;;;;;;;16.81;65.22;99049.63;7422168;39;20260;31
2023/05/07 00:11:21;;;;;;;2.57;2.20;;;;;;;16.81;65.53;99052.34;7398290;39;21897;31
2023/05/07 00:16:53;;;;;;;4.60;2.00;;;;;;;16.64;65.67;99050.06;7355087;39;21406;31
2023/05/07 00:22:25;;;;;;;3.00;2.10;;;;;;;16.58;65.17;99045.47;7336587;39;21329;31
2023/05/07 00:33:02;;;;;;;4.43;2.37;;;;;;;16.47;65.79;99051.47;7310790;39;20285;31
2023/05/07 00:43:23;;;;;;;5.33;2.37;;;;;;;16.43;65.74;99035.78;7377629;39;20274;31
2023/05/07 00:53:57;;;;;;;3.15;2.30;;;;;;;16.27;66.65;99028.03;7464562;39;20321;31
2023/05/07 00:59:29;;;;;;;3.50;2.30;;;;;;;16.28;66.55;99041.41;7420120;39;20251;31
2023/05/07 01:04:46;;;;;;;5.30;2.50;;;;;;;16.41;66.70;99040.59;7380036;39;20377;31
2023/05/07 01:10:20;;;;;;;3.47;2.13;;;;;;;16.36;66.52;99026.78;7359253;39;21964;31
2023/05/07 01:15:52;;;;;;;3.40;2.37;;;;;;;16.28;66.68;99022.34;7358920;39;20265;31
2023/05/07 01:21:24;;;;;;;2.10;1.90;;;;;;;16.26;66.10;99021.75;7316284;39;20248;31
2023/05/07 01:26:57;;;;;;;2.60;2.10;;;;;;;16.37;66.31;99023.84;7356028;39;20423;31
2023/05/07 01:32:44;;;;;;;4.40;2.10;;;;;;;16.16;67.16;99026.75;7363831;39;22014;31
2023/05/07 01:38:19;;;;;;;2.15;1.95;;;;;;;16.05;67.51;99027.34;7148861;39;20226;31
2023/05/07 01:43:57;;;;;;;2.23;2.00;;;;;;;15.99;67.39;99014.56;7410177;39;20242;31
2023/05/07 01:49:33;;;;;;;3.80;2.35;;;;;;;16.07;67.39;99007.06;7457373;39;20328;31
2023/05/07 01:55:08;;;;;;;3.52;2.50;;;;;;;16.12;67.29;99012.72;7490191;38;20256;31
2023/05/07 02:06:46;;;;;;;3.97;2.30;;;;;;;15.88;67.64;99020.63;7421005;39;20251;31
2023/05/07 02:12:07;;;;;;;4.53;2.03;;;;;;;15.84;68.23;99024.81;7444517;39;20281;31
2023/05/07 02:17:25;;;;;;;2.77;2.17;;;;;;;15.82;67.50;99029.59;7446938;39;20291;31
2023/05/07 02:23:01;;;;;;;2.80;1.80;;;;;;;15.90;67.33;99027.53;7465024;38;20251;31
2023/05/07 02:28:36;;;;;;;3.10;2.20;;;;;;;15.85;67.91;99031.88;7495535;38;20242;31
2023/05/07 02:33:57;;;;;;;3.83;1.90;;;;;;;15.93;67.08;99042.59;7469592;39;20238;31
2023/05/07 02:39:31;;;;;;;3.05;2.05;;;;;;;15.86;66.94;99042.56;7468131;39;20329;31
2023/05/07 02:44:53;;;;;;;1.70;1.60;;;;;;;15.70;68.11;99038.34;7450247;39;20366;31
2023/05/07 02:50:10;;;;;;;2.37;1.80;;;;;;;15.56;68.94;99023.03;7462999;39;20237;31
2023/05/07 02:55:43;;;;;;;3.93;2.20;;;;;;;15.45;68.64;99033.56;7439067;39;22000;31
2023/05/07 03:06:21;;;;;;;2.63;1.93;;;;;;;15.55;68.54;99018.63;7439988;39;20404;31
2023/05/07 03:11:54;;;;;;;2.95;2.20;;;;;;;15.52;68.75;99004.63;7401417;39;20234;31
2023/05/07 03:17:29;;;;;;;2.53;1.90;;;;;;;15.42;68.79;99023.13;7366893;39;20385;31
2023/05/07 03:22:50;;;;;;;2.65;2.10;;;;;;;15.23;69.42;99014.66;7465039;39;20241;31
2023/05/07 03:28:22;;;;;;;2.83;2.20;;;;;;;15.18;69.98;99009.00;7462920;39;20447;31
2023/05/07 03:34:04;;;;;;;2.40;2.10;;;;;;;15.18;69.44;99006.28;7451702;38;20249;31
2023/05/07 03:39:26;;;;;;;2.40;2.20;;;;;;;15.32;69.77;99002.59;7442334;39;20249;31
2023/05/07 03:44:58;;;;;;;3.30;2.40;;;;;;;15.11;70.68;99005.41;7445186;39;20242;31
2023/05/07 03:50:32;;;;;;;3.57;2.20;;;;;;;14.95;71.45;99011.19;7441606;39;20383;31
2023/05/07 03:55:49;;;;;;;8.07;2.43;;;;;;;14.89;71.13;99020.94;7385980;39;20405;31
2023/05/07 04:01:21;;;;;;;3.60;2.17;;;;;;;14.77;71.90;99017.13;7443171;39;20257;31
2023/05/07 04:06:39;;;;;;;3.27;2.30;;;;;;;14.82;71.64;99032.81;7441685;39;20318;31
2023/05/07 04:11:56;;;;;;;3.45;2.30;;;;;;;14.93;70.63;99026.81;7438868;39;20361;31
2023/05/07 04:17:28;;;;;;;6.87;2.23;;;;;;;14.89;70.96;99029.09;7428874;39;20448;31
2023/05/07 04:28:05;;;;;;;3.17;2.20;;;;;;;15.05;70.99;99037.97;7424164;39;20266;31
2023/05/07 04:38:41;;;;;;;4.17;2.30;;;;;;;14.95;71.10;99038.31;7440185;39;20401;31
2023/05/07 04:44:04;;;;;;;5.20;2.30;;;;;;;15.03;70.90;99038.16;7427731;38;20268;31
2023/05/07 04:49:37;;;;;;;2.83;2.20;;;;;;;15.09;70.92;99042.81;7488316;38;20264;31
2023/05/07 05:00:14;;;;;;;4.17;2.10;;;;;;;15.17;71.37;99042.66;7463200;39;20302;31
2023/05/07 05:10:35;;;;;;;3.10;2.13;;;;;;;15.37;70.60;99053.59;7440239;39;20381;31
2023/05/07 05:16:09;;;;;;;4.80;2.30;;;;;;;15.31;71.21;99052.53;7398975;39;21361;31
2023/05/07 05:21:26;;;;;;;2.73;2.10;;;;;;;15.33;71.44;99069.47;7462909;39;20363;31
2023/05/07 05:32:07;;;;;;;4.03;2.43;;;;;;;15.48;71.31;99071.22;7418295;39;20247;31
2023/05/07 05:42:28;;;;;;;3.67;2.10;;;;;;;15.78;70.63;99083.53;7404433;39;20503;31
2023/05/07 05:47:59;;;;;;;3.53;2.37;;;;;;;15.93;70.22;99067.88;7421691;39;21952;31
2023/05/07 05:53:19;;;;;;;6.83;2.70;;;;;;;16.07;69.18;99075.03;7417192;39;20362;31
2023/05/07 05:58:40;;;;;;;3.35;2.35;;;;;;;16.20;70.37;99083.22;7420978;39;20248;31
2023/05/07 06:04:13;;;;;;;3.80;2.67;;;;;;;16.30;69.57;99079.28;7436265;39;21945;31
2023/05/07 06:09:30;;;;;;;4.35;2.55;;;;;;;16.43;69.04;99080.16;7402088;39;20278;31
2023/05/07 06:15:02;;;;;;;3.35;2.60;;;;;;;16.56;68.87;99082.03;7339103;39;20281;31
2023/05/07 06:20:33;;;;;;;5.60;2.50;;;;;;;16.65;69.61;99075.38;7338170;39;20303;31
2023/05/07 06:26:08;;;;;;;4.23;2.77;;;;;;;16.84;69.32;99085.47;7332257;39;20303;31
2023/05/07 06:31:42;;;;;;;4.63;2.60;;;;;;;16.87;68.95;99071.41;7392373;39;20292;31
2023/05/07 06:37:13;;;;;;;4.07;2.53;;;;;;;16.99;68.97;99083.34;7389624;39;20376;31
2023/05/07 06:42:30;;;;;;;5.15;2.50;;;;;;;17.16;67.80;99094.63;7376088;39;20363;31
2023/05/07 06:53:08;;;;;;;3.73;2.43;;;;;;;17.63;66.96;99093.53;7416022;39;20255;31
2023/05/07 06:58:29;;;;;;;4.20;2.90;;;;;;;17.70;66.20;99093.50;7482392;38;20331;31
2023/05/07 07:04:05;;;;;;;3.65;2.65;;;;;;;17.80;66.05;99097.47;7421879;39;20245;31
2023/05/07 07:09:38;;;;;;;3.20;2.40;;;;;;;18.06;66.12;99091.06;7378412;39;21180;31
2023/05/07 07:15:10;;;;;;;3.73;2.50;;;;;;;18.24;64.56;99090.34;7423195;39;20260;31
2023/05/07 07:20:30;;;;;;;5.43;2.40;;;;;;;18.36;63.69;99100.34;7430983;39;21894;31
2023/05/07 07:26:05;;;;;;;2.97;2.40;;;;;;;18.54;64.17;99102.34;7437407;39;21469;31
2023/05/07 07:31:19;;;;;;;4.47;2.47;;;;;;;18.79;62.57;99105.09;7381548;39;20258;31
2023/05/07 07:36:37;;;;;;;3.90;2.40;;;;;;;19.03;63.06;99103.47;7447514;39;21317;31
2023/05/07 07:42:11;;;;;;;2.80;2.30;;;;;;;19.12;61.26;99102.97;7425624;39;21349;31
2023/05/07 07:47:28;;;;;;;2.80;2.20;;;;;;;19.15;62.85;99110.69;7446512;38;21356;31
2023/05/07 07:53:03;;;;;;;3.50;2.40;;;;;;;19.39;61.79;99109.00;7449535;39;20250;31
2023/05/07 07:58:39;;;;;;;4.30;2.60;;;;;;;19.72;59.95;99108.69;7448680;39;20325;31
2023/05/07 08:04:14;;;;;;;3.00;2.50;;;;;;;19.99;59.87;99114.69;7491296;38;20233;31
2023/05/07 08:09:31;;;;;;;3.37;2.50;;;;;;;20.22;59.62;99106.59;7463376;39;20309;31
2023/05/07 08:20:10;;;;;;;3.73;2.80;;;;;;;20.54;58.01;99094.37;7460389;39;20257;31
2023/05/07 08:30:35;;;;;;;5.10;2.83;;;;;;;20.60;58.28;99115.34;7417320;39;20263;31
2023/05/07 08:36:09;;;;;;;3.63;2.70;;;;;;;20.90;57.67;99123.53;7460127;39;20335;31
2023/05/07 08:41:44;;;;;;;3.77;2.70;;;;;;;20.97;56.86;99113.31;7433896;39;20273;31
2023/05/07 08:47:16;;;;;;;3.53;2.93;;;;;;;20.74;57.59;99107.78;7240532;39;20310;31
2023/05/07 08:52:49;;;;;;;3.40;2.50;;;;;;;20.84;58.55;99124.50;7399533;39;21310;31
2023/05/07 08:58:09;;;;;;;3.77;2.60;;;;;;;21.01;57.71;99119.16;7375295;39;22098;31
2023/05/07 09:03:26;;;;;;;3.67;3.00;;;;;;;21.03;58.20;99115.09;7377651;39;20294;31
2023/05/07 09:09:05;;;;;;;3.77;2.60;;;;;;;21.36;58.38;99106.34;7415818;39;21241;31
2023/05/07 09:14:23;;;;;;;3.50;3.15;;;;;;;21.71;56.48;99114.56;7450301;39;21897;31
2023/05/07 09:19:41;;;;;;;5.40;2.95;;;;;;;21.85;56.85;99107.69;7419553;39;21266;31
2023/05/07 09:25:13;;;;;;;3.50;3.00;;;;;;;21.85;56.32;99115.13;7338978;39;20310;31
2023/05/07 09:30:45;;;;;;;3.45;3.00;;;;;;;21.89;56.83;99100.69;7310776;39;20256;31
2023/05/07 09:36:18;;;;;;;3.30;3.00;;;;;;;22.14;55.87;99108.63;7273727;39;21888;31
2023/05/07 09:42:01;;;;;;;3.80;3.00;;;;;;;22.17;55.08;99108.16;7375986;39;20277;31
2023/05/07 09:47:31;;;;;;;3.20;2.90;;;;;;;22.25;56.13;99110.50;7399123;39;21926;31
2023/05/07 09:53:03;;;;;;;4.10;3.30;;;;;;;22.56;54.65;99100.09;7441663;39;20238;31
2023/05/07 09:58:51;;;;;;;5.15;2.95;;;;;;;22.79;54.67;99098.09;7442115;39;21287;31
2023/05/07 10:09:27;;;;;;;3.60;3.00;;;;;;;23.08;54.14;99093.34;7400031;39;20646;31
2023/05/07 10:20:04;;;;;;;5.25;3.00;;;;;;;23.42;53.86;99093.34;7397463;39;20374;31
2023/05/07 10:30:40;;;;;;;4.43;2.78;;;;;;;23.51;53.06;99086.37;7388655;39;20270;31
2023/05/07 10:36:17;;;;;;;3.55;2.80;;;;;;;23.59;52.56;99096.94;7420727;39;20258;31
2023/05/07 10:41:52;;;;;;;6.37;3.40;;;;;;;23.77;52.62;99091.97;7364646;39;20342;31
2023/05/07 10:47:24;;;;;;;3.33;3.03;;;;;;;23.99;51.83;99089.25;7404237;39;20255;31
2023/05/07 10:52:57;;;;;;;4.80;3.23;;;;;;;24.12;51.33;99082.50;7403278;39;20243;31
2023/05/07 10:58:39;;;;;;;4.40;3.20;;;;;;;24.28;51.45;99080.78;7387631;39;21969;31
2023/05/07 11:04:31;;;;;;;3.20;2.80;;;;;;;24.41;50.78;99070.19;7421407;39;21319;31
2023/05/07 11:10:13;;;;;;;4.33;2.53;;;;;;;24.69;52.26;99069.09;7392377;39;20231;31
2023/05/07 11:15:48;;;;;;;3.20;2.80;;;;;;;24.66;50.46;99073.19;7377026;39;21923;31
2023/05/07 11:21:46;;;;;;;3.62;3.00;;;;;;;24.24;51.62;99069.44;7406521;39;20439;31
2023/05/07 11:27:17;;;;;;;3.70;2.87;;;;;;;24.15;52.07;99070.97;7391455;39;20278;31
2023/05/07 11:32:52;;;;;;;3.27;2.60;;;;;;;24.32;51.55;99059.88;7369175;39;20270;31
2023/05/07 11:38:24;;;;;;;2.70;2.40;;;;;;;24.50;51.53;99062.28;7315214;39;21881;31
2023/05/07 11:44:10;;;;;;;3.12;2.83;;;;;;;24.25;51.80;99054.59;7317675;39;21824;31
2023/05/07 11:49:42;;;;;;;5.00;2.75;;;;;;;23.97;52.38;99068.53;7364676;39;20255;31
2023/05/07 11:55:14;;;;;;;3.20;2.90;;;;;;;23.80;52.40;99065.84;7399384;39;21180;31
2023/05/07 12:00:48;;;;;;;2.50;2.30;;;;;;;23.85;52.71;99059.56;7377323;39;21347;31
2023/05/07 12:06:21;;;;;;;4.10;2.70;;;;;;;23.74;52.39;99061.34;7406078;39;22071;31
2023/05/07 12:16:58;;;;;;;7.75;3.72;;;;;;;23.83;51.62;99067.28;7384716;39;20685;31
2023/05/07 12:22:30;;;;;;;5.65;3.00;;;;;;;23.79;51.91;99062.25;7381969;39;20247;31
2023/05/07 12:28:07;;;;;;;5.70;2.90;;;;;;;23.71;52.07;99068.22;7415880;39;21223;31
2023/05/07 12:33:41;;;;;;;4.70;2.92;;;;;;;23.88;53.35;99065.41;7462944;39;21129;31
2023/05/07 12:39:17;;;;;;;3.55;2.70;;;;;;;24.18;52.46;99060.28;7463891;38;20270;31
2023/05/07 12:49:58;;;;;;;3.08;2.70;;;;;;;24.52;50.51;99044.41;7474606;39;20255;31
2023/05/07 12:55:33;;;;;;;3.80;2.78;;;;;;;24.66;50.65;99037.38;7471939;39;20249;31
2023/05/07 13:01:09;;;;;;;2.94;2.50;;;;;;;24.82;50.66;99038.34;7490011;38;20254;31
2023/05/07 13:06:45;;;;;;;3.20;2.70;;;;;;;25.02;48.66;99030.25;7463456;39;20338;31
2023/05/07 13:12:02;;;;;;;3.45;2.50;;;;;;;24.85;50.24;99043.31;7444031;39;22039;31
2023/05/07 13:17:19;;;;;;;4.43;3.00;;;;;;;24.51;50.58;99050.19;7377783;39;20401;31
2023/05/07 13:22:53;;;;;;;4.62;2.67;;;;;;;24.36;50.49;99047.25;7330893;39;20332;31
2023/05/07 13:28:25;;;;;;;4.80;2.50;;;;;;;24.29;50.02;99049.41;7334760;39;21922;31
2023/05/07 13:33:57;;;;;;;3.93;2.80;;;;;;;24.28;50.12;99053.22;7354276;39;20241;31
2023/05/07 13:39:27;;;;;;;5.55;3.00;;;;;;;24.15;50.37;99054.44;7375992;39;20253;31
2023/05/07 13:44:45;;;;;;;2.78;2.22;;;;;;;24.05;51.21;99046.06;7371123;39;21984;31
2023/05/07 13:50:16;;;;;;;4.40;2.55;;;;;;;23.71;50.66;99043.44;7410584;39;20266;31
2023/05/07 13:55:52;;;;;;;4.22;2.20;;;;;;;23.49;50.77;99050.84;7439847;39;20320;31
2023/05/07 14:01:24;;;;;;;2.07;1.60;;;;;;;23.35;52.60;99055.84;7466314;39;20278;31
2023/05/07 14:06:42;;;;;;;2.55;1.90;;;;;;;23.25;53.26;99060.38;7466095;39;20261;31
2023/05/07 14:12:19;;;;;;;3.23;1.80;;;;;;;23.10;53.61;99062.87;7506719;38;20358;31
2023/05/07 14:17:54;;;;;;;3.45;2.05;;;;;;;22.89;54.94;99070.81;7496708;38;20339;31
2023/05/07 14:23:11;;;;;;;2.90;1.83;;;;;;;22.80;55.85;99068.72;7463003;39;20296;31
2023/05/07 14:28:46;;;;;;;2.30;1.90;;;;;;;22.37;57.86;99066.53;7460379;39;22043;31
2023/05/07 14:39:07;;;;;;;3.85;1.92;;;;;;;22.36;57.26;99081.34;7449310;39;20246;31
2023/05/07 14:44:41;;;;;;;3.30;2.10;;;;;;;22.32;57.83;99077.41;7382984;39;20247;31
2023/05/07 14:50:00;;;;;;;2.33;1.90;;;;;;;22.61;57.82;99081.81;7441596;39;20333;31
2023/05/07 14:55:31;;;;;;;2.42;1.90;;;;;;;22.78;57.61;99081.84;7358773;39;20432;31
2023/05/07 15:01:02;;;;;;;2.70;1.80;;;;;;;22.56;56.05;99092.69;7356827;39;20244;31
2023/05/07 15:06:35;;;;;;;3.95;2.10;;;;;;;22.39;56.48;99098.16;7378515;39;21187;31
2023/05/07 15:12:10;;;;;;;3.10;2.17;;;;;;;22.28;59.16;99121.00;7170643;39;21417;31
2023/05/07 15:17:42;;;;;;;2.33;2.10;;;;;;;21.92;61.33;99121.31;7388917;39;20254;31
2023/05/07 15:23:15;;;;;;;4.53;1.92;;;;;;;21.86;57.58;99139.56;7421420;39;21171;31
2023/05/07 15:28:48;;;;;;;2.10;1.63;;;;;;;21.59;54.64;99150.22;7425958;39;21222;31
2023/05/07 15:34:23;;;;;;;1.35;1.25;;;;;;;21.47;53.83;99154.03;7399944;39;21223;31
2023/05/07 15:39:40;;;;;;;3.45;1.65;;;;;;;21.35;55.45;99170.47;7395105;39;20438;31
2023/05/07 15:45:01;;;;;;;2.90;1.60;;;;;;;21.19;55.14;99184.06;7419774;39;20266;31
2023/05/07 15:50:50;;;;;;;1.80;1.70;;;;;;;20.97;57.34;99173.59;7375756;39;21925;31
2023/05/07 15:56:24;;;;;;;2.75;1.90;;;;;;;20.74;56.94;99175.44;7384409;39;21962;31
2023/05/07 16:01:41;;;;;;;5.40;1.60;;;;;;;20.43;58.88;99191.00;7401176;39;20266;31
2023/05/07 16:07:13;;;;;;;4.05;1.60;;;;;;;20.27;59.35;99195.16;7355637;39;21916;31
2023/05/07 16:12:49;;;;;;;2.85;1.40;;;;;;;20.06;60.91;99209.31;7402955;39;21307;31
2023/05/07 16:18:24;;;;;;;1.85;1.40;;;;;;;19.98;60.82;99208.78;7462637;39;20353;31
2023/05/07 16:24:03;;;;;;;2.20;1.40;;;;;;;19.79;61.31;99203.28;7468452;39;20350;31
2023/05/07 16:29:38;;;;;;;1.50;1.30;;;;;;;19.73;61.21;99197.88;7447691;39;20382;31
2023/05/07 16:34:58;;;;;;;1.70;1.20;;;;;;;19.72;62.32;99198.94;7466936;39;20250;31
2023/05/07 16:40:33;;;;;;;1.80;1.23;;;;;;;19.49;62.42;99194.09;7510975;38;20237;31
2023/05/07 16:46:05;;;;;;;2.50;1.10;;;;;;;19.40;63.25;99200.87;7463932;39;20329;31
2023/05/07 16:51:39;;;;;;;1.57;1.30;;;;;;;19.52;62.65;99203.78;7441831;39;21932;31
2023/05/07 16:57:25;;;;;;;1.60;1.20;;;;;;;19.54;63.11;99198.91;7419963;39;21286;31
2023/05/07 17:03:00;;;;;;;2.70;1.40;;;;;;;19.60;63.43;99212.53;7431755;39;20277;31
2023/05/07 17:08:35;;;;;;;2.47;1.40;;;;;;;19.62;62.93;99215.00;7500740;38;20233;31
2023/05/07 17:14:10;;;;;;;2.27;1.40;;;;;;;19.55;62.88;99217.81;7484377;38;20277;31
2023/05/07 17:19:29;;;;;;;1.90;1.57;;;;;;;19.36;64.02;99230.56;7378310;39;21944;31
2023/05/07 17:30:10;;;;;;;1.80;1.40;;;;;;;19.63;63.49;99236.69;7416516;39;20262;31
2023/05/07 17:40:31;;;;;;;1.60;1.50;;;;;;;19.71;62.98;99273.84;7479859;38;20371;31
2023/05/07 17:46:05;;;;;;;2.00;1.80;;;;;;;19.57;65.26;99275.84;7446127;39;21262;31
2023/05/07 17:51:40;;;;;;;2.20;1.80;;;;;;;19.58;65.24;99293.94;7455486;39;20280;31
2023/05/07 17:57:00;;;;;;;2.00;1.60;;;;;;;19.54;66.27;99303.66;7465838;39;20333;31
2023/05/07 18:02:33;;;;;;;1.93;1.33;;;;;;;19.41;67.19;99290.03;7483921;39;20280;31
2023/05/07 18:08:08;;;;;;;1.78;1.50;;;;;;;19.36;67.56;99293.44;7400630;39;20235;31
2023/05/07 18:13:43;;;;;;;1.80;1.50;;;;;;;19.32;67.84;99299.56;7361806;39;21857;31
2023/05/07 18:24:24;;;;;;;1.70;1.40;;;;;;;19.21;67.62;99308.47;7373083;39;20383;31
2023/05/07 18:29:55;;;;;;;2.37;1.50;;;;;;;19.15;68.21;99310.19;7409225;39;21312;31
2023/05/07 18:40:34;;;;;;;2.30;1.60;;;;;;;18.99;70.13;99312.59;7446499;39;20265;31
2023/05/07 18:51:11;;;;;;;4.17;2.00;;;;;;;18.85;70.40;99311.81;7461279;39;20266;31
2023/05/07 18:56:43;;;;;;;1.80;1.70;;;;;;;18.75;70.75;99308.69;7466812;39;20258;31
2023/05/07 19:02:04;;;;;;;2.60;1.80;;;;;;;18.72;71.00;99325.53;7442428;39;20242;31
2023/05/07 19:07:40;;;;;;;3.67;1.80;;;;;;;18.68;72.55;99318.81;7509991;38;20227;31
2023/05/07 19:13:13;;;;;;;2.50;1.80;;;;;;;18.64;72.86;99328.50;7419296;39;20304;31
2023/05/07 19:18:30;;;;;;;2.90;1.90;;;;;;;18.61;72.66;99327.03;7468668;39;20337;31
2023/05/07 19:23:49;;;;;;;3.33;1.90;;;;;;;18.57;73.06;99328.50;7401734;39;20288;31
2023/05/07 19:29:20;;;;;;;1.77;1.50;;;;;;;18.38;74.47;99318.47;7419932;39;21267;31
2023/05/07 19:34:52;;;;;;;3.20;1.60;;;;;;;18.39;74.45;99331.03;7396873;39;21264;31
2023/05/07 19:40:25;;;;;;;2.12;1.70;;;;;;;18.20;75.19;99337.37;7378272;39;21313;31
2023/05/07 19:45:58;;;;;;;2.83;1.70;;;;;;;18.14;75.21;99338.22;7338181;39;21205;31
2023/05/07 19:51:34;;;;;;;3.70;1.60;;;;;;;18.24;74.55;99358.59;7416202;39;21323;31
2023/05/07 19:57:09;;;;;;;2.90;1.60;;;;;;;18.26;75.09;99359.19;7397915;39;21294;31
2023/05/07 20:02:42;;;;;;;2.05;1.50;;;;;;;18.30;74.59;99365.91;7405675;39;21289;31
2023/05/07 20:08:01;;;;;;;3.70;1.70;;;;;;;18.35;74.36;99366.13;7462263;39;21350;31
2023/05/07 20:13:20;;;;;;;3.40;1.80;;;;;;;18.31;74.96;99378.50;7484077;38;21251;31
2023/05/07 20:18:54;;;;;;;5.40;1.70;;;;;;;18.24;75.18;99385.88;7463722;39;20312;31
2023/05/07 20:24:27;;;;;;;2.20;2.00;;;;;;;18.24;74.79;99402.25;7420676;39;21374;31
2023/05/07 20:30:00;;;;;;;2.67;1.77;;;;;;;18.18;74.88;99400.34;7440881;39;21430;31
2023/05/07 20:35:37;;;;;;;2.93;1.60;;;;;;;18.01;76.29;99405.38;7461591;38;20249;31
2023/05/07 20:41:13;;;;;;;3.83;1.87;;;;;;;17.81;76.73;99420.06;7512393;38;20238;31
2023/05/07 20:46:30;;;;;;;3.87;1.67;;;;;;;17.78;76.87;99412.28;7478289;39;21209;31
2023/05/07 20:52:04;;;;;;;2.00;1.70;;;;;;;17.63;78.36;99412.47;7441944;39;21308;31
2023/05/07 20:57:37;;;;;;;2.87;1.80;;;;;;;17.58;77.97;99409.53;7399077;39;21393;31
2023/05/07 21:02:58;;;;;;;1.80;1.67;;;;;;;17.77;77.28;99414.16;7422952;39;21345;31
2023/05/07 21:08:34;;;;;;;2.00;1.80;;;;;;;17.81;77.11;99414.63;7436622;39;20233;31
2023/05/07 21:14:09;;;;;;;2.50;1.80;;;;;;;17.85;77.53;99413.16;7439020;39;20377;31
2023/05/07 21:24:47;;;;;;;2.70;1.63;;;;;;;17.86;77.67;99421.09;7417979;39;20406;31
2023/05/07 21:30:24;;;;;;;3.00;1.70;;;;;;;17.80;76.96;99427.41;7451101;39;20331;31
2023/05/07 21:35:43;;;;;;;3.00;1.65;;;;;;;17.72;78.06;99433.06;7463995;38;21272;31
2023/05/07 21:41:20;;;;;;;2.70;1.90;;;;;;;17.69;77.88;99427.16;7487380;38;20245;31
2023/05/07 21:46:37;;;;;;;4.15;1.80;;;;;;;17.77;77.63;99441.44;7483367;38;21266;31
2023/05/07 21:51:59;;;;;;;4.10;1.90;;;;;;;17.74;77.57;99439.13;7494106;38;20230;31
2023/05/07 21:57:34;;;;;;;2.72;1.84;;;;;;;17.70;78.29;99442.47;7284594;39;21043;31
2023/05/07 22:02:55;;;;;;;3.60;2.10;;;;;;;17.75;77.42;99449.00;7493244;39;20245;31
2023/05/07 22:08:15;;;;;;;2.13;1.83;;;;;;;17.71;77.69;99442.28;7494843;38;21060;31
2023/05/07 22:13:51;;;;;;;2.00;1.85;;;;;;;17.56;78.66;99441.56;7494464;38;20256;31
2023/05/07 22:19:13;;;;;;;2.80;1.80;;;;;;;17.44;79.10;99454.94;7471182;39;20242;31
2023/05/07 22:24:45;;;;;;;2.17;1.97;;;;;;;17.46;79.56;99452.03;7401300;39;20344;31
2023/05/07 22:30:16;;;;;;;2.75;2.00;;;;;;;17.38;79.62;99452.19;7359383;39;20263;31
2023/05/07 22:40:42;;;;;;;2.20;2.00;;;;;;;17.28;79.55;99462.66;7408008;39;20267;31
2023/05/07 22:51:18;;;;;;;3.17;2.50;;;;;;;17.25;80.45;99465.75;7441246;39;20345;31
2023/05/07 22:56:52;;;;;;;3.00;2.30;;;;;;;17.31;80.30;99467.69;7379058;39;20275;31
2023/05/07 23:02:13;;;;;;;2.93;2.53;;;;;;;17.37;80.12;99465.00;7387812;39;20268;31
2023/05/07 23:07:43;;;;;;;3.45;2.45;;;;;;;17.37;80.29;99458.72;7358629;39;20247;31
2023/05/07 23:13:17;;;;;;;2.90;2.70;;;;;;;17.42;79.86;99450.75;7338852;39;21404;31
2023/05/07 23:18:35;;;;;;;3.70;3.40;;;;;;;17.39;80.21;99454.72;7345836;39;21394;31
2023/05/07 23:24:11;;;;;;;4.80;3.80;;;;;;;17.29;80.79;99453.44;7392798;39;20254;31
2023/05/07 23:29:29;;;;;;;4.57;4.00;;;;;;;17.29;80.88;99453.44;7441280;39;20397;31
2023/05/07 23:35:02;;;;;;;5.67;4.73;;;;;;;17.23;81.19;99449.63;7445576;39;21139;31
2023/05/07 23:40:32;;;;;;;5.17;4.67;;;;;;;17.15;82.37;99463.44;7441149;39;21195;31
2023/05/07 23:45:53;;;;;;;6.00;4.85;;;;;;;17.22;81.78;99461.56;7401697;39;20243;31
2023/05/07 23:51:13;;;;;;;4.70;4.20;;;;;;;17.33;80.94;99454.72;7394174;39;20378;31
2023/05/07 23:56:45;;;;;;;4.90;4.30;;;;;;;17.35;81.48;99455.34;7399641;39;21271;31
